createdAt,value
2023-05-01T00:01:00.362Z,10.82
2023-05-01T00:03:27.786Z,10.76
2023-05-01T00:06:01.580Z,10.68
2023-05-01T00:08:28.613Z,10.65
2023-05-01T00:10:56.143Z,10.60
2023-05-01T00:13:24.610Z,10.57
2023-05-01T00:15:52.504Z,10.52
2023-05-01T00:18:19.819Z,10.45
2023-05-01T00:20:46.736Z,10.44
2023-05-01T00:23:14.092Z,10.41
2023-05-01T00:25:40.971Z,10.42
2023-05-01T00:28:08.061Z,10.42
2023-05-01T00:30:35.869Z,10.45
2023-05-01T00:33:02.797Z,10.48
2023-05-01T00:35:31.611Z,10.49
2023-05-01T00:37:58.843Z,10.48
2023-05-01T00:40:26.188Z,10.48
2023-05-01T00:42:53.213Z,10.52
2023-05-01T00:45:20.621Z,10.50
2023-05-01T00:47:48.237Z,10.50
2023-05-01T00:50:15.301Z,10.50
2023-05-01T00:52:42.750Z,10.51
2023-05-01T00:55:09.931Z,10.49
2023-05-01T00:57:37.369Z,10.48
2023-05-01T01:00:05.682Z,10.53
2023-05-01T01:02:33.371Z,10.54
2023-05-01T01:05:00.398Z,10.58
2023-05-01T01:07:36.429Z,10.59
2023-05-01T01:10:21.710Z,10.58
2023-05-01T01:13:06.864Z,10.65
2023-05-01T01:15:48.413Z,10.66
2023-05-01T01:18:40.725Z,10.68
2023-05-01T01:21:27.736Z,10.70
2023-05-01T01:24:26.515Z,10.69
2023-05-01T01:28:02.472Z,10.70
2023-05-01T01:30:58.582Z,10.70
2023-05-01T01:34:02.414Z,10.78
2023-05-01T01:36:38.144Z,10.75
2023-05-01T01:39:15.292Z,10.76
2023-05-01T01:41:50.325Z,10.71
2023-05-01T01:44:24.905Z,10.69
2023-05-01T01:46:54.694Z,10.69
2023-05-01T01:49:27.060Z,10.65
2023-05-01T01:51:57.042Z,10.66
2023-05-01T01:54:33.467Z,10.67
2023-05-01T01:57:02.848Z,10.68
2023-05-01T01:59:34.747Z,10.67
2023-05-01T02:02:03.673Z,10.65
2023-05-01T02:04:33.205Z,10.63
2023-05-01T02:07:01.714Z,10.54
2023-05-01T02:09:31.476Z,10.52
2023-05-01T02:12:00.568Z,10.46
2023-05-01T02:14:28.366Z,10.41
2023-05-01T02:16:57.564Z,10.36
2023-05-01T02:19:26.586Z,10.30
2023-05-01T02:21:57.915Z,10.26
2023-05-01T02:24:27.932Z,10.26
2023-05-01T02:27:03.563Z,10.19
2023-05-01T02:29:30.848Z,10.17
2023-05-01T02:31:57.835Z,10.17
2023-05-01T02:34:24.781Z,10.15
2023-05-01T02:36:51.992Z,10.18
2023-05-01T02:39:19.154Z,10.21
2023-05-01T02:41:49.290Z,10.23
2023-05-01T02:44:16.763Z,10.24
2023-05-01T02:46:47.417Z,10.25
2023-05-01T02:49:17.107Z,10.27
2023-05-01T02:51:45.364Z,10.28
2023-05-01T02:54:13.702Z,10.33
2023-05-01T02:56:40.625Z,10.33
2023-05-01T02:59:07.725Z,10.40
2023-05-01T03:01:34.721Z,10.40
2023-05-01T03:04:01.985Z,10.42
2023-05-01T03:06:29.812Z,10.41
2023-05-01T03:08:56.834Z,10.38
2023-05-01T03:11:24.632Z,10.33
2023-05-01T03:13:51.540Z,10.32
2023-05-01T03:16:18.897Z,10.32
2023-05-01T03:18:46.224Z,10.33
2023-05-01T03:21:13.291Z,10.36
2023-05-01T03:23:40.635Z,10.36
2023-05-01T03:26:07.968Z,10.37
2023-05-01T03:28:35.059Z,10.36
2023-05-01T03:31:01.971Z,10.40
2023-05-01T03:33:29.065Z,10.36
2023-05-01T03:36:05.833Z,10.33
2023-05-01T03:38:33.509Z,10.31
2023-05-01T03:41:00.526Z,10.22
2023-05-01T03:43:27.508Z,10.19
2023-05-01T03:45:54.607Z,10.16
2023-05-01T03:48:21.845Z,10.18
2023-05-01T03:50:48.695Z,10.15
2023-05-01T03:53:15.638Z,10.15
2023-05-01T03:55:42.980Z,10.15
2023-05-01T03:58:11.058Z,10.14
2023-05-01T04:00:38.146Z,10.14
2023-05-01T04:03:05.597Z,10.15
2023-05-01T04:05:33.638Z,10.16
2023-05-01T04:08:00.576Z,10.17
2023-05-01T04:10:27.532Z,10.21
2023-05-01T04:12:54.398Z,10.19
2023-05-01T04:15:23.065Z,10.16
2023-05-01T04:17:50.343Z,10.18
2023-05-01T04:20:19.355Z,10.18
2023-05-01T04:22:46.249Z,10.16
2023-05-01T04:25:13.128Z,10.20
2023-05-01T04:27:40.168Z,10.25
2023-05-01T04:30:07.918Z,10.25
2023-05-01T04:32:35.807Z,10.25
2023-05-01T04:35:04.192Z,10.21
2023-05-01T04:37:31.502Z,10.20
2023-05-01T04:39:58.597Z,10.23
2023-05-01T04:42:32.261Z,10.21
2023-05-01T04:45:04.366Z,10.29
2023-05-01T04:47:31.669Z,10.26
2023-05-01T04:49:58.743Z,10.22
2023-05-01T04:52:25.788Z,10.23
2023-05-01T04:54:53.301Z,10.20
2023-05-01T04:57:20.260Z,10.23
2023-05-01T04:59:48.045Z,10.23
2023-05-01T05:02:14.939Z,10.22
2023-05-01T05:04:41.915Z,10.26
2023-05-01T05:07:09.654Z,10.29
2023-05-01T05:09:36.647Z,10.28
2023-05-01T05:12:04.930Z,10.29
2023-05-01T05:14:31.970Z,10.26
2023-05-01T05:16:58.978Z,10.28
2023-05-01T05:19:26.507Z,10.30
2023-05-01T05:21:53.380Z,10.36
2023-05-01T05:24:20.317Z,10.42
2023-05-01T05:26:47.301Z,10.46
2023-05-01T05:29:14.610Z,10.42
2023-05-01T05:31:41.692Z,10.50
2023-05-01T05:34:08.751Z,10.48
2023-05-01T05:36:36.243Z,10.52
2023-05-01T05:39:03.822Z,10.54
2023-05-01T05:41:30.800Z,10.59
2023-05-01T05:43:57.946Z,10.57
2023-05-01T05:46:25.281Z,10.62
2023-05-01T05:48:52.891Z,10.59
2023-05-01T05:51:19.838Z,10.62
2023-05-01T05:53:47.131Z,10.64
2023-05-01T05:56:14.412Z,10.70
2023-05-01T05:58:41.364Z,10.68
2023-05-01T06:01:09.789Z,10.77
2023-05-01T06:03:37.530Z,10.72
2023-05-01T06:06:05.159Z,10.83
2023-05-01T06:08:32.689Z,10.77
2023-05-01T06:10:59.565Z,10.92
2023-05-01T06:13:27.021Z,10.99
2023-05-01T06:15:54.091Z,10.98
2023-05-01T06:18:21.290Z,10.99
2023-05-01T06:20:48.313Z,11.06
2023-05-01T06:23:15.750Z,11.15
2023-05-01T06:25:43.092Z,11.15
2023-05-01T06:28:10.046Z,11.21
2023-05-01T06:30:37.134Z,11.26
2023-05-01T06:33:04.700Z,11.29
2023-05-01T06:35:32.029Z,11.30
2023-05-01T06:38:00.444Z,11.31
2023-05-01T06:40:27.477Z,11.35
2023-05-01T06:42:54.391Z,11.43
2023-05-01T06:45:21.463Z,11.50
2023-05-01T06:47:48.465Z,11.62
2023-05-01T06:50:15.572Z,11.67
2023-05-01T06:52:42.548Z,11.83
2023-05-01T06:55:10.068Z,11.90
2023-05-01T06:57:37.027Z,12.10
2023-05-01T07:00:04.522Z,12.20
2023-05-01T07:02:31.673Z,12.29
2023-05-01T07:04:58.724Z,12.36
2023-05-01T07:07:25.913Z,12.42
2023-05-01T07:09:52.810Z,12.46
2023-05-01T07:12:19.679Z,12.43
2023-05-01T07:14:46.872Z,12.55
2023-05-01T07:17:13.756Z,12.53
2023-05-01T07:19:40.632Z,12.53
2023-05-01T07:22:07.651Z,12.64
2023-05-01T07:24:34.558Z,12.68
2023-05-01T07:27:01.611Z,12.70
2023-05-01T07:29:28.677Z,12.61
2023-05-01T07:31:55.865Z,12.66
2023-05-01T07:34:23.132Z,12.66
2023-05-01T07:36:50.066Z,12.63
2023-05-01T07:39:18.086Z,12.57
2023-05-01T07:41:45.060Z,12.70
2023-05-01T07:44:11.931Z,12.70
2023-05-01T07:46:39.269Z,12.66
2023-05-01T07:49:06.222Z,12.70
2023-05-01T07:51:33.523Z,12.66
2023-05-01T07:54:04.871Z,12.71
2023-05-01T07:56:32.133Z,12.69
2023-05-01T07:58:59.154Z,12.75
2023-05-01T08:01:26.713Z,12.69
2023-05-01T08:03:53.860Z,12.72
2023-05-01T08:06:20.909Z,12.75
2023-05-01T08:08:48.058Z,12.78
2023-05-01T08:11:15.017Z,12.86
2023-05-01T08:13:42.274Z,12.91
2023-05-01T08:16:09.398Z,12.91
2023-05-01T08:18:36.304Z,12.94
2023-05-01T08:21:03.759Z,13.00
2023-05-01T08:23:30.904Z,13.11
2023-05-01T08:25:58.565Z,13.07
2023-05-01T08:28:25.643Z,13.10
2023-05-01T08:30:52.601Z,13.19
2023-05-01T08:33:19.970Z,13.18
2023-05-01T08:35:46.904Z,13.30
2023-05-01T08:38:13.793Z,13.31
2023-05-01T08:40:48.664Z,13.33
2023-05-01T08:43:16.159Z,13.38
2023-05-01T08:45:44.724Z,13.40
2023-05-01T08:48:13.364Z,13.37
2023-05-01T08:50:45.887Z,13.34
2023-05-01T08:53:16.314Z,13.35
2023-05-01T08:55:48.345Z,13.36
2023-05-01T08:58:17.107Z,13.26
2023-05-01T09:00:45.615Z,13.10
2023-05-01T09:03:16.721Z,13.04
2023-05-01T09:05:44.131Z,13.04
2023-05-01T09:08:11.136Z,12.97
2023-05-01T09:10:46.725Z,12.94
2023-05-01T09:13:13.593Z,13.00
2023-05-01T09:15:40.691Z,13.06
2023-05-01T09:18:09.424Z,13.21
2023-05-01T09:20:38.107Z,13.26
2023-05-01T09:23:05.271Z,13.42
2023-05-01T09:25:32.308Z,13.56
2023-05-01T09:27:59.257Z,13.72
2023-05-01T09:30:39.665Z,13.65
2023-05-01T09:33:15.181Z,13.82
2023-05-01T09:35:56.293Z,13.87
2023-05-01T09:38:28.836Z,13.88
2023-05-01T09:41:05.436Z,13.89
2023-05-01T09:43:32.519Z,13.93
2023-05-01T09:46:07.111Z,14.01
2023-05-01T09:48:37.806Z,14.08
2023-05-01T09:51:32.567Z,14.13
2023-05-01T09:54:05.258Z,14.19
2023-05-01T09:56:37.549Z,14.29
2023-05-01T09:59:21.314Z,14.36
2023-05-01T10:01:50.818Z,14.47
2023-05-01T10:04:18.423Z,14.56
2023-05-01T10:06:45.486Z,14.69
2023-05-01T10:09:17.821Z,14.67
2023-05-01T10:11:49.711Z,14.77
2023-05-01T10:14:17.068Z,14.76
2023-05-01T10:16:45.106Z,14.84
2023-05-01T10:19:13.114Z,14.84
2023-05-01T10:21:40.091Z,14.84
2023-05-01T10:24:09.849Z,14.83
2023-05-01T10:26:38.062Z,14.79
2023-05-01T10:29:05.323Z,14.72
2023-05-01T10:31:33.367Z,14.73
2023-05-01T10:34:02.376Z,14.77
2023-05-01T10:36:39.522Z,14.69
2023-05-01T10:39:07.451Z,14.76
2023-05-01T10:41:59.389Z,14.82
2023-05-01T10:44:27.440Z,14.80
2023-05-01T10:46:55.204Z,14.87
2023-05-01T10:49:22.755Z,14.88
2023-05-01T10:52:01.601Z,15.01
2023-05-01T10:54:29.809Z,15.13
2023-05-01T10:57:01.434Z,15.23
2023-05-01T11:00:04.265Z,15.30
2023-05-01T11:02:31.204Z,15.32
2023-05-01T11:04:58.424Z,15.32
2023-05-01T11:07:26.444Z,15.36
2023-05-01T11:09:57.710Z,15.50
2023-05-01T11:12:46.945Z,15.65
2023-05-01T11:15:32.865Z,15.83
2023-05-01T11:18:04.091Z,16.13
2023-05-01T11:20:37.048Z,16.43
2023-05-01T11:23:04.174Z,16.57
2023-05-01T11:25:33.187Z,16.69
2023-05-01T11:28:04.418Z,16.73
2023-05-01T11:30:39.080Z,16.79
2023-05-01T11:33:10.092Z,16.51
2023-05-01T11:35:39.589Z,16.29
2023-05-01T11:38:06.623Z,16.10
2023-05-01T11:40:35.307Z,15.92
2023-05-01T11:43:08.239Z,15.78
2023-05-01T11:45:37.429Z,15.63
2023-05-01T11:48:05.774Z,15.62
2023-05-01T11:50:41.881Z,15.58
2023-05-01T11:53:15.999Z,15.67
2023-05-01T11:55:43.672Z,15.70
2023-05-01T11:58:11.086Z,15.76
2023-05-01T12:00:42.367Z,15.86
2023-05-01T12:03:13.729Z,15.84
2023-05-01T12:09:39.066Z,15.87
2023-05-01T12:12:06.413Z,15.85
2023-05-01T12:14:33.399Z,15.77
2023-05-01T12:17:00.540Z,15.86
2023-05-01T12:19:27.522Z,15.79
2023-05-01T12:22:09.800Z,15.74
2023-05-01T12:24:37.930Z,15.70
2023-05-01T12:27:05.644Z,15.67
2023-05-01T12:29:42.116Z,15.91
2023-05-01T12:32:09.520Z,16.18
2023-05-01T12:34:37.078Z,16.29
2023-05-01T12:38:16.179Z,16.29
2023-05-01T12:40:57.918Z,16.28
2023-05-01T12:43:37.288Z,16.46
2023-05-01T12:46:06.093Z,16.60
2023-05-01T12:48:34.485Z,16.68
2023-05-01T12:51:01.905Z,16.80
2023-05-01T12:53:30.029Z,16.85
2023-05-01T12:56:50.381Z,16.70
2023-05-01T12:59:28.229Z,16.46
2023-05-01T13:02:03.698Z,16.52
2023-05-01T13:04:31.028Z,16.41
2023-05-01T13:06:58.974Z,16.38
2023-05-01T13:09:32.768Z,16.38
2023-05-01T13:12:09.188Z,16.56
2023-05-01T13:14:39.170Z,16.71
2023-05-01T13:17:32.685Z,16.82
2023-05-01T13:20:05.223Z,16.88
2023-05-01T13:22:33.112Z,16.80
2023-05-01T13:25:03.278Z,16.72
2023-05-01T13:27:30.443Z,16.77
2023-05-01T13:30:00.028Z,16.69
2023-05-01T13:32:27.750Z,16.53
2023-05-01T13:34:54.738Z,16.47
2023-05-01T13:37:22.557Z,16.27
2023-05-01T13:39:49.726Z,16.22
2023-05-01T13:42:25.048Z,16.14
2023-05-01T13:44:54.906Z,15.92
2023-05-01T13:47:26.643Z,16.01
2023-05-01T13:49:54.260Z,16.03
2023-05-01T13:52:21.613Z,15.92
2023-05-01T13:54:49.136Z,15.89
2023-05-01T13:57:17.464Z,15.93
2023-05-01T13:59:47.222Z,15.91
2023-05-01T14:02:27.430Z,15.81
2023-05-01T14:04:57.067Z,15.76
2023-05-01T14:07:25.851Z,15.68
2023-05-01T14:10:00.243Z,15.78
2023-05-01T14:12:30.277Z,15.83
2023-05-01T14:14:58.447Z,15.92
2023-05-01T14:17:38.098Z,16.22
2023-05-01T14:20:11.215Z,16.39
2023-05-01T14:22:48.433Z,16.49
2023-05-01T14:25:31.617Z,16.56
2023-05-01T14:28:01.302Z,16.47
2023-05-01T14:30:38.892Z,16.46
2023-05-01T14:33:14.447Z,16.38
2023-05-01T14:35:50.573Z,16.53
2023-05-01T14:38:20.102Z,16.46
2023-05-01T14:40:57.933Z,16.53
2023-05-01T14:43:25.067Z,16.54
2023-05-01T14:45:53.091Z,16.62
2023-05-01T14:48:29.405Z,16.71
2023-05-01T14:50:58.869Z,16.88
2023-05-01T14:53:32.636Z,16.76
2023-05-01T14:56:02.106Z,16.91
2023-05-01T14:58:29.393Z,16.99
2023-05-01T15:00:57.693Z,17.06
2023-05-01T15:03:24.806Z,17.17
2023-05-01T15:05:52.577Z,17.16
2023-05-01T15:08:24.923Z,17.15
2023-05-01T15:10:55.827Z,17.09
2023-05-01T15:13:22.997Z,17.11
2023-05-01T15:15:50.388Z,17.02
2023-05-01T15:18:17.881Z,16.99
2023-05-01T15:20:45.632Z,16.91
2023-05-01T15:23:13.019Z,16.92
2023-05-01T15:25:40.077Z,16.88
2023-05-01T15:28:07.241Z,16.74
2023-05-01T15:30:34.877Z,16.69
2023-05-01T15:33:05.800Z,16.70
2023-05-01T15:35:34.093Z,16.72
2023-05-01T15:38:01.174Z,16.72
2023-05-01T15:40:28.487Z,16.67
2023-05-01T15:42:56.639Z,16.68
2023-05-01T15:45:23.802Z,16.60
2023-05-01T15:47:51.657Z,16.50
2023-05-01T15:50:22.174Z,16.40
2023-05-01T15:52:50.087Z,16.37
2023-05-01T15:55:18.736Z,16.48
2023-05-01T15:57:47.882Z,16.40
2023-05-01T16:00:17.323Z,16.38
2023-05-01T16:02:45.167Z,16.37
2023-05-01T16:05:15.597Z,16.31
2023-05-01T16:07:45.497Z,16.26
2023-05-01T16:10:12.867Z,16.20
2023-05-01T16:12:40.364Z,16.22
2023-05-01T16:15:09.102Z,16.21
2023-05-01T16:17:44.262Z,16.21
2023-05-01T16:20:14.870Z,16.20
2023-05-01T16:22:43.550Z,16.33
2023-05-01T16:25:13.636Z,16.27
2023-05-01T16:27:44.682Z,16.29
2023-05-01T16:30:14.894Z,16.29
2023-05-01T16:32:43.729Z,16.26
2023-05-01T16:35:15.592Z,16.27
2023-05-01T16:37:42.605Z,16.15
2023-05-01T16:40:10.620Z,16.36
2023-05-01T16:42:39.235Z,16.41
2023-05-01T16:45:13.099Z,16.34
2023-05-01T16:47:40.654Z,16.29
2023-05-01T16:50:10.337Z,16.20
2023-05-01T16:52:40.756Z,16.15
2023-05-01T16:55:08.285Z,16.09
2023-05-01T16:57:35.339Z,16.11
2023-05-01T17:00:03.525Z,16.08
2023-05-01T17:02:30.753Z,16.05
2023-05-01T17:04:57.723Z,16.08
2023-05-01T17:07:24.784Z,16.03
2023-05-01T17:09:51.861Z,16.14
2023-05-01T17:12:18.877Z,16.16
2023-05-01T17:14:46.321Z,16.25
2023-05-01T17:17:13.512Z,16.22
2023-05-01T17:19:40.719Z,16.26
2023-05-01T17:22:09.391Z,16.20
2023-05-01T17:24:37.136Z,16.11
2023-05-01T17:27:04.398Z,16.01
2023-05-01T17:29:38.696Z,15.91
2023-05-01T17:32:33.525Z,15.75
2023-05-01T17:35:13.282Z,15.56
2023-05-01T17:37:50.433Z,15.52
2023-05-01T17:40:29.238Z,15.53
2023-05-01T17:43:06.009Z,15.58
2023-05-01T17:45:48.487Z,15.59
2023-05-01T17:48:24.682Z,15.49
2023-05-01T17:51:08.059Z,15.34
2023-05-01T17:54:18.206Z,15.35
2023-05-01T17:56:54.863Z,15.25
2023-05-01T18:00:03.232Z,15.15
2023-05-01T18:02:35.860Z,15.18
2023-05-01T18:05:13.913Z,15.14
2023-05-01T18:07:49.232Z,15.10
2023-05-01T18:10:19.685Z,15.09
2023-05-01T18:12:50.180Z,15.01
2023-05-01T18:15:24.673Z,14.92
2023-05-01T18:17:55.647Z,14.78
2023-05-01T18:20:27.971Z,14.82
2023-05-01T18:23:03.874Z,14.74
2023-05-01T18:25:32.723Z,14.66
2023-05-01T18:28:13.148Z,14.59
2023-05-01T18:31:10.392Z,14.48
2023-05-01T18:33:48.690Z,14.39
2023-05-01T18:36:16.152Z,14.33
2023-05-01T18:38:44.845Z,14.20
2023-05-01T18:41:13.500Z,14.15
2023-05-01T18:43:41.989Z,14.03
2023-05-01T18:46:11.556Z,13.92
2023-05-01T18:48:39.132Z,13.79
2023-05-01T18:51:09.049Z,13.71
2023-05-01T18:53:39.038Z,13.61
2023-05-01T18:56:09.946Z,13.55
2023-05-01T18:58:37.682Z,13.46
2023-05-01T19:01:08.157Z,13.34
2023-05-01T19:03:36.011Z,13.29
2023-05-01T19:06:03.257Z,13.26
2023-05-01T19:08:31.969Z,13.18
2023-05-01T19:10:59.149Z,13.09
2023-05-01T19:13:44.306Z,13.05
2023-05-01T19:16:11.943Z,13.05
2023-05-01T19:18:39.245Z,12.98
2023-05-01T19:21:06.503Z,12.90
2023-05-01T19:23:37.752Z,12.86
2023-05-01T19:26:06.983Z,12.80
2023-05-01T19:28:36.675Z,12.77
2023-05-01T19:31:08.111Z,12.71
2023-05-01T19:33:35.805Z,12.61
2023-05-01T19:36:02.969Z,12.57
2023-05-01T19:38:31.322Z,12.48
2023-05-01T19:40:58.400Z,12.42
2023-05-01T19:43:25.564Z,12.34
2023-05-01T19:45:53.836Z,12.27
2023-05-01T19:48:20.977Z,12.25
2023-05-01T19:50:51.392Z,12.15
2023-05-01T19:53:18.901Z,12.11
2023-05-01T19:55:47.776Z,12.00
2023-05-01T19:58:47.467Z,11.96
2023-05-01T20:01:14.698Z,11.93
2023-05-01T20:03:41.880Z,11.85
2023-05-01T20:06:11.623Z,11.78
2023-05-01T20:08:38.860Z,11.74
2023-05-01T20:11:09.799Z,11.66
2023-05-01T20:13:40.303Z,11.61
2023-05-01T20:16:10.440Z,11.56
2023-05-01T20:18:37.644Z,11.53
2023-05-01T20:21:06.340Z,11.46
2023-05-01T20:23:35.026Z,11.41
2023-05-01T20:26:02.270Z,11.36
2023-05-01T20:28:29.597Z,11.30
2023-05-01T20:30:59.532Z,11.27
2023-05-01T20:33:26.966Z,11.22
2023-05-01T20:35:56.889Z,11.17
2023-05-01T20:38:27.831Z,11.11
2023-05-01T20:40:55.061Z,11.04
2023-05-01T20:43:35.987Z,11.00
2023-05-01T20:46:06.904Z,10.97
2023-05-01T20:48:37.144Z,10.90
2023-05-01T20:51:06.642Z,10.86
2023-05-01T20:53:36.873Z,10.80
2023-05-01T20:56:12.694Z,10.77
2023-05-01T20:58:44.504Z,10.71
2023-05-01T21:01:16.613Z,10.67
2023-05-01T21:03:46.567Z,10.67
2023-05-01T21:06:16.363Z,10.64
2023-05-01T21:08:43.775Z,10.59
2023-05-01T21:11:13.378Z,10.54
2023-05-01T21:13:43.994Z,10.49
2023-05-01T21:16:23.509Z,10.46
2023-05-01T21:18:58.885Z,10.44
2023-05-01T21:21:31.665Z,10.37
2023-05-01T21:24:02.101Z,10.30
2023-05-01T21:26:32.525Z,10.26
2023-05-01T21:29:00.707Z,10.19
2023-05-01T21:31:37.049Z,10.16
2023-05-01T21:34:11.149Z,10.12
2023-05-01T21:36:47.031Z,10.08
2023-05-01T21:39:29.405Z,10.06
2023-05-01T21:41:59.556Z,10.00
2023-05-01T21:44:50.680Z,9.93
2023-05-01T21:47:18.435Z,9.92
2023-05-01T21:49:48.841Z,9.91
2023-05-01T21:52:22.167Z,9.87
2023-05-01T21:55:08.339Z,9.85
2023-05-01T21:57:47.946Z,9.83
2023-05-01T22:00:30.899Z,9.80
2023-05-01T22:03:21.623Z,9.75
2023-05-01T22:05:51.090Z,9.76
2023-05-01T22:08:18.716Z,9.74
2023-05-01T22:10:46.632Z,9.71
2023-05-01T22:13:18.481Z,9.64
2023-05-01T22:15:56.836Z,9.59
2023-05-01T22:18:58.452Z,9.48
2023-05-01T22:25:22.282Z,9.41
2023-05-01T22:32:12.028Z,9.30
2023-05-01T22:38:43.275Z,9.21
2023-05-01T22:45:09.121Z,9.17
2023-05-01T22:51:07.927Z,9.05
2023-05-01T22:53:38.580Z,9.02
2023-05-01T22:56:52.677Z,8.95
2023-05-01T23:03:40.217Z,8.96
2023-05-01T23:14:25.731Z,9.14
2023-05-01T23:24:54.015Z,9.39
2023-05-01T23:41:56.777Z,9.50
2023-05-01T23:48:22.995Z,9.49
2023-05-01T23:54:47.413Z,9.60
